createdAt,value
2022-08-26T00:00:34.405Z,24.00
2022-08-26T00:03:28.746Z,23.90
2022-08-26T00:09:08.106Z,23.90
2022-08-26T00:11:36.331Z,24.00
2022-08-26T00:14:13.630Z,23.90
2022-08-26T00:16:57.005Z,23.80
2022-08-26T00:19:34.785Z,23.80
2022-08-26T00:22:21.609Z,23.80
2022-08-26T00:24:51.091Z,23.70
2022-08-26T00:27:34.274Z,23.70
2022-08-26T00:30:13.260Z,23.70
2022-08-26T00:33:21.211Z,23.60
2022-08-26T00:36:09.115Z,23.60
2022-08-26T00:39:01.967Z,23.50
2022-08-26T00:41:38.820Z,23.60
2022-08-26T00:44:18.210Z,23.50
2022-08-26T00:47:03.313Z,23.50
2022-08-26T00:49:54.770Z,23.50
2022-08-26T00:53:03.230Z,23.50
2022-08-26T00:55:42.430Z,23.50
2022-08-26T00:58:43.326Z,23.40
2022-08-26T01:01:24.611Z,23.40
2022-08-26T01:04:06.561Z,23.30
2022-08-26T01:06:45.197Z,23.30
2022-08-26T01:09:44.253Z,23.30
2022-08-26T01:12:27.221Z,23.30
2022-08-26T01:15:32.899Z,23.30
2022-08-26T01:18:08.457Z,23.30
2022-08-26T01:20:57.954Z,23.20
2022-08-26T01:23:59.315Z,23.30
2022-08-26T01:26:59.523Z,23.20
2022-08-26T01:29:45.691Z,23.20
2022-08-26T01:32:25.292Z,23.20
2022-08-26T01:35:10.928Z,23.20
2022-08-26T01:37:51.209Z,23.20
2022-08-26T01:40:52.040Z,23.10
2022-08-26T01:43:42.680Z,23.10
2022-08-26T01:46:19.353Z,23.10
2022-08-26T01:49:14.721Z,23.10
2022-08-26T01:51:54.806Z,23.10
2022-08-26T01:57:40.557Z,23.10
2022-08-26T02:00:28.941Z,23.10
2022-08-26T02:03:20.510Z,23.00
2022-08-26T02:06:04.493Z,23.00
2022-08-26T02:08:50.503Z,22.90
2022-08-26T02:11:26.620Z,22.90
2022-08-26T02:14:04.481Z,22.90
2022-08-26T02:16:48.562Z,22.90
2022-08-26T02:19:36.256Z,22.80
2022-08-26T02:22:16.269Z,22.80
2022-08-26T02:25:32.628Z,22.70
2022-08-26T02:28:12.400Z,22.70
2022-08-26T02:30:45.686Z,22.70
2022-08-26T02:33:25.356Z,22.70
2022-08-26T02:38:50.432Z,22.60
2022-08-26T02:42:05.597Z,22.60
2022-08-26T02:44:53.243Z,22.60
2022-08-26T02:48:12.905Z,22.50
2022-08-26T02:50:52.092Z,22.50
2022-08-26T02:53:31.943Z,22.50
2022-08-26T02:56:09.784Z,22.40
2022-08-26T02:58:40.816Z,22.40
2022-08-26T03:01:51.796Z,22.30
2022-08-26T03:04:57.779Z,22.30
2022-08-26T03:07:43.720Z,22.20
2022-08-26T03:10:22.566Z,22.20
2022-08-26T03:13:05.602Z,22.20
2022-08-26T03:15:38.806Z,22.10
2022-08-26T03:18:11.050Z,22.10
2022-08-26T03:20:56.349Z,22.10
2022-08-26T03:23:36.658Z,22.00
2022-08-26T03:29:33.179Z,22.00
2022-08-26T03:32:30.362Z,22.00
2022-08-26T03:38:02.011Z,22.00
2022-08-26T03:40:52.882Z,22.00
2022-08-26T03:43:28.454Z,22.00
2022-08-26T03:48:59.770Z,21.90
2022-08-26T03:51:38.939Z,21.90
2022-08-26T03:54:38.819Z,21.90
2022-08-26T03:57:18.345Z,21.90
2022-08-26T03:59:54.416Z,21.80
2022-08-26T04:02:27.309Z,21.80
2022-08-26T04:05:13.975Z,21.80
2022-08-26T04:08:08.087Z,21.80
2022-08-26T04:11:07.405Z,21.70
2022-08-26T04:13:54.613Z,21.70
2022-08-26T04:16:36.825Z,21.70
2022-08-26T04:19:08.693Z,21.70
2022-08-26T04:21:48.365Z,21.70
2022-08-26T04:27:18.469Z,21.70
2022-08-26T04:29:51.420Z,21.70
2022-08-26T04:32:28.903Z,21.60
2022-08-26T04:35:03.403Z,21.70
2022-08-26T04:37:35.457Z,21.60
2022-08-26T04:40:05.674Z,21.60
2022-08-26T04:42:34.998Z,21.50
2022-08-26T04:45:15.124Z,21.50
2022-08-26T04:47:48.991Z,21.40
2022-08-26T04:50:23.707Z,21.40
2022-08-26T04:52:52.263Z,21.30
2022-08-26T04:55:19.467Z,21.30
2022-08-26T04:57:47.408Z,21.30
2022-08-26T05:00:15.382Z,21.30
2022-08-26T05:02:42.617Z,21.30
2022-08-26T05:05:10.743Z,21.20
2022-08-26T05:07:38.449Z,21.20
2022-08-26T05:10:08.779Z,21.20
2022-08-26T05:12:36.134Z,21.30
2022-08-26T05:15:05.638Z,21.30
2022-08-26T05:17:33.556Z,21.40
2022-08-26T05:20:00.608Z,21.40
2022-08-26T05:22:27.792Z,21.50
2022-08-26T05:24:54.775Z,21.50
2022-08-26T05:27:26.858Z,21.60
2022-08-26T05:29:57.284Z,21.70
2022-08-26T05:32:24.662Z,21.80
2022-08-26T05:34:57.883Z,21.90
2022-08-26T05:37:25.446Z,22.00
2022-08-26T05:39:52.578Z,22.10
2022-08-26T05:42:20.017Z,22.20
2022-08-26T05:44:53.946Z,22.30
2022-08-26T05:47:24.163Z,22.40
2022-08-26T05:49:51.502Z,22.30
2022-08-26T05:52:20.149Z,22.40
2022-08-26T05:54:47.774Z,22.40
2022-08-26T05:57:15.049Z,22.40
2022-08-26T05:59:42.156Z,22.30
2022-08-26T06:02:09.879Z,22.30
2022-08-26T06:04:36.859Z,22.40
2022-08-26T06:07:03.839Z,22.40
2022-08-26T06:09:38.511Z,22.40
2022-08-26T06:12:06.041Z,22.30
2022-08-26T06:14:32.783Z,22.40
2022-08-26T06:17:00.810Z,22.30
2022-08-26T06:19:33.003Z,22.20
2022-08-26T06:22:23.564Z,22.20
2022-08-26T06:25:09.940Z,22.20
2022-08-26T06:27:37.171Z,22.10
2022-08-26T06:30:04.587Z,22.20
2022-08-26T06:32:31.834Z,22.20
2022-08-26T06:34:59.246Z,22.30
2022-08-26T06:37:26.329Z,22.30
2022-08-26T06:39:53.386Z,22.30
2022-08-26T06:42:20.444Z,22.30
2022-08-26T06:44:47.880Z,22.30
2022-08-26T06:47:15.150Z,22.30
2022-08-26T06:49:42.097Z,22.40
2022-08-26T06:52:11.834Z,22.40
2022-08-26T06:54:43.030Z,22.50
2022-08-26T06:57:11.581Z,22.60
2022-08-26T06:59:41.457Z,22.50
2022-08-26T07:02:13.532Z,22.40
2022-08-26T07:04:41.294Z,22.30
2022-08-26T07:07:09.745Z,22.30
2022-08-26T07:09:37.567Z,22.20
2022-08-26T07:12:06.810Z,22.10
2022-08-26T07:14:35.473Z,21.90
2022-08-26T07:17:02.863Z,22.00
2022-08-26T07:19:31.870Z,22.10
2022-08-26T07:22:05.423Z,22.20
2022-08-26T07:24:38.568Z,22.10
2022-08-26T07:27:08.910Z,22.10
2022-08-26T07:29:38.958Z,22.20
2022-08-26T07:32:07.583Z,22.20
2022-08-26T07:34:36.699Z,22.20
2022-08-26T07:37:05.308Z,22.20
2022-08-26T07:39:36.325Z,22.10
2022-08-26T07:42:07.878Z,22.10
2022-08-26T07:44:37.053Z,22.10
2022-08-26T07:47:10.579Z,22.10
2022-08-26T07:49:57.669Z,22.20
2022-08-26T07:52:28.113Z,22.20
2022-08-26T07:54:58.135Z,22.30
2022-08-26T07:57:26.776Z,22.40
2022-08-26T07:59:55.432Z,22.40
2022-08-26T08:02:24.141Z,22.40
2022-08-26T08:04:52.325Z,22.50
2022-08-26T08:07:19.774Z,22.50
2022-08-26T08:09:53.339Z,22.60
2022-08-26T08:12:21.697Z,22.60
2022-08-26T08:14:49.873Z,22.70
2022-08-26T08:17:17.139Z,22.70
2022-08-26T08:19:46.139Z,22.80
2022-08-26T08:22:17.953Z,22.90
2022-08-26T08:24:53.320Z,22.90
2022-08-26T08:27:23.820Z,22.80
2022-08-26T08:29:57.048Z,22.80
2022-08-26T08:32:28.760Z,22.80
2022-08-26T08:34:59.508Z,22.80
2022-08-26T08:37:26.818Z,23.10
2022-08-26T08:39:56.597Z,23.10
2022-08-26T08:45:49.573Z,23.30
2022-08-26T08:48:27.776Z,23.40
2022-08-26T08:51:13.935Z,23.50
2022-08-26T08:53:44.532Z,23.60
2022-08-26T08:56:23.877Z,23.70
2022-08-26T08:59:17.111Z,23.80
2022-08-26T09:02:20.695Z,23.80
2022-08-26T09:04:59.793Z,23.90
2022-08-26T09:07:37.579Z,23.90
2022-08-26T09:10:26.310Z,23.80
2022-08-26T09:12:57.395Z,23.90
2022-08-26T09:15:51.404Z,23.80
2022-08-26T09:18:40.745Z,23.90
2022-08-26T09:21:10.665Z,24.00
2022-08-26T09:23:41.850Z,24.10
2022-08-26T09:26:29.660Z,24.10
2022-08-26T09:29:03.933Z,24.20
2022-08-26T09:31:34.140Z,24.30
2022-08-26T09:34:20.749Z,24.30
2022-08-26T09:36:56.220Z,24.30
2022-08-26T09:39:34.300Z,24.30
2022-08-26T09:42:09.747Z,24.40
2022-08-26T09:45:07.630Z,24.40
2022-08-26T09:47:39.742Z,24.40
2022-08-26T09:50:18.871Z,24.40
2022-08-26T09:52:48.134Z,24.30
2022-08-26T09:55:21.998Z,24.30
2022-08-26T09:57:51.770Z,24.40
2022-08-26T10:00:27.365Z,24.50
2022-08-26T10:03:07.262Z,24.60
2022-08-26T10:05:44.018Z,24.70
2022-08-26T10:08:44.143Z,24.70
2022-08-26T10:11:37.586Z,24.70
2022-08-26T10:14:22.584Z,24.70
2022-08-26T10:17:22.125Z,24.80
2022-08-26T10:19:57.849Z,24.90
2022-08-26T10:22:35.022Z,24.90
2022-08-26T10:25:05.561Z,25.10
2022-08-26T10:27:53.636Z,25.10
2022-08-26T10:30:33.545Z,25.10
2022-08-26T10:33:12.295Z,24.80
2022-08-26T10:36:03.228Z,24.90
2022-08-26T10:38:35.601Z,25.10
2022-08-26T10:41:20.315Z,25.10
2022-08-26T10:43:58.603Z,25.20
2022-08-26T10:46:30.315Z,25.30
2022-08-26T10:49:10.548Z,25.20
2022-08-26T10:52:15.174Z,25.10
2022-08-26T10:55:15.938Z,25.00
2022-08-26T10:58:07.303Z,24.90
2022-08-26T11:01:10.819Z,25.00
2022-08-26T11:03:46.670Z,25.20
2022-08-26T11:06:19.792Z,25.20
2022-08-26T11:08:56.986Z,25.20
2022-08-26T11:11:42.643Z,25.10
2022-08-26T11:14:28.892Z,25.00
2022-08-26T11:16:57.539Z,24.90
2022-08-26T11:19:45.615Z,25.00
2022-08-26T11:22:38.093Z,25.20
2022-08-26T11:25:30.044Z,25.30
2022-08-26T11:28:01.085Z,25.20
2022-08-26T11:30:36.833Z,25.20
2022-08-26T11:33:06.090Z,25.30
2022-08-26T11:35:39.217Z,25.30
2022-08-26T11:38:21.529Z,25.20
2022-08-26T11:41:06.118Z,25.10
2022-08-26T11:43:34.366Z,25.20
2022-08-26T11:46:11.778Z,25.40
2022-08-26T11:48:43.525Z,25.50
2022-08-26T11:51:23.175Z,25.70
2022-08-26T11:53:51.290Z,25.60
2022-08-26T11:56:28.759Z,25.50
2022-08-26T11:59:04.253Z,25.30
2022-08-26T12:01:35.810Z,25.20
2022-08-26T12:04:05.770Z,25.20
2022-08-26T12:06:43.358Z,25.40
2022-08-26T12:09:20.950Z,25.50
2022-08-26T12:11:48.105Z,25.70
2022-08-26T12:14:27.733Z,25.70
2022-08-26T12:16:55.611Z,25.50
2022-08-26T12:19:27.452Z,25.40
2022-08-26T12:22:23.693Z,25.30
2022-08-26T12:24:54.553Z,25.20
2022-08-26T12:27:31.354Z,25.20
2022-08-26T12:30:08.364Z,25.20
2022-08-26T12:32:57.377Z,25.40
2022-08-26T12:35:28.661Z,25.50
2022-08-26T12:37:57.641Z,25.40
2022-08-26T12:40:45.727Z,25.50
2022-08-26T12:43:34.308Z,25.50
2022-08-26T12:46:01.631Z,25.80
2022-08-26T12:48:38.977Z,25.90
2022-08-26T12:51:21.944Z,26.00
2022-08-26T12:53:49.106Z,25.90
2022-08-26T12:56:30.087Z,26.00
2022-08-26T12:59:27.629Z,26.00
2022-08-26T13:01:55.053Z,26.00
2022-08-26T13:04:43.807Z,26.10
2022-08-26T13:07:26.234Z,26.10
2022-08-26T13:09:56.299Z,26.10
2022-08-26T13:12:30.166Z,26.20
2022-08-26T13:14:58.947Z,26.20
2022-08-26T13:17:27.860Z,26.30
2022-08-26T13:19:58.951Z,26.40
2022-08-26T13:22:29.370Z,26.20
2022-08-26T13:24:57.085Z,26.10
2022-08-26T13:27:26.361Z,26.00
2022-08-26T13:29:54.137Z,26.10
2022-08-26T13:32:22.498Z,26.20
2022-08-26T13:35:13.338Z,26.20
2022-08-26T13:37:40.374Z,26.20
2022-08-26T13:40:13.450Z,26.30
2022-08-26T13:42:43.002Z,26.40
2022-08-26T13:45:17.512Z,26.40
2022-08-26T13:47:44.742Z,26.50
2022-08-26T13:50:14.873Z,26.60
2022-08-26T13:52:44.634Z,26.70
2022-08-26T13:55:15.837Z,26.60
2022-08-26T13:57:42.958Z,26.50
2022-08-26T14:00:12.693Z,26.60
2022-08-26T14:02:43.215Z,26.50
2022-08-26T14:05:19.188Z,26.40
2022-08-26T14:07:53.926Z,26.40
2022-08-26T14:10:21.868Z,26.40
2022-08-26T14:12:51.688Z,26.30
2022-08-26T14:18:06.633Z,26.40
2022-08-26T14:20:37.329Z,26.50
2022-08-26T14:23:13.582Z,26.60
2022-08-26T14:25:41.457Z,26.70
2022-08-26T14:28:08.543Z,26.70
2022-08-26T14:30:37.187Z,26.70
2022-08-26T14:33:04.266Z,26.80
2022-08-26T14:35:31.317Z,26.80
2022-08-26T14:37:58.535Z,26.70
2022-08-26T14:40:30.351Z,26.70
2022-08-26T14:42:58.643Z,26.60
2022-08-26T14:45:27.348Z,26.60
2022-08-26T14:47:58.730Z,26.60
2022-08-26T14:50:26.601Z,26.50
2022-08-26T14:53:12.382Z,26.60
2022-08-26T14:55:41.522Z,26.70
2022-08-26T14:58:09.777Z,26.70
2022-08-26T15:00:37.514Z,26.80
2022-08-26T15:03:05.601Z,26.60
2022-08-26T15:05:33.897Z,26.30
2022-08-26T15:08:02.234Z,26.20
2022-08-26T15:10:29.427Z,26.20
2022-08-26T15:12:56.281Z,26.10
2022-08-26T15:15:24.670Z,26.10
2022-08-26T15:17:51.685Z,25.90
2022-08-26T15:20:18.904Z,25.80
2022-08-26T15:22:46.047Z,25.70
2022-08-26T15:25:14.483Z,25.70
2022-08-26T15:27:41.518Z,25.80
2022-08-26T15:30:11.077Z,25.90
2022-08-26T15:32:38.019Z,25.90
2022-08-26T15:35:09.037Z,25.90
2022-08-26T15:37:37.131Z,25.90
2022-08-26T15:40:05.102Z,25.70
2022-08-26T15:42:32.160Z,25.60
2022-08-26T15:44:59.516Z,25.60
2022-08-26T15:47:26.766Z,25.40
2022-08-26T15:49:58.906Z,25.50
2022-08-26T15:52:26.163Z,25.40
2022-08-26T15:54:53.105Z,25.40
2022-08-26T15:57:20.174Z,25.30
2022-08-26T15:59:49.910Z,25.20
2022-08-26T16:02:17.558Z,25.20
2022-08-26T16:04:44.586Z,25.30
2022-08-26T16:07:12.863Z,25.30
2022-08-26T16:09:39.848Z,25.20
2022-08-26T16:12:09.607Z,25.30
2022-08-26T16:14:36.584Z,25.40
2022-08-26T16:17:03.729Z,25.40
2022-08-26T16:19:30.624Z,25.40
2022-08-26T16:21:57.498Z,25.20
2022-08-26T16:24:30.090Z,25.10
2022-08-26T16:26:57.824Z,25.10
2022-08-26T16:29:24.945Z,25.00
2022-08-26T16:31:54.682Z,24.90
2022-08-26T16:34:22.496Z,24.80
2022-08-26T16:36:49.615Z,24.80
2022-08-26T16:39:16.568Z,24.80
2022-08-26T16:41:44.497Z,24.80
2022-08-26T16:44:12.195Z,24.80
2022-08-26T16:46:39.753Z,24.60
2022-08-26T16:49:06.888Z,24.60
2022-08-26T16:51:34.850Z,24.60
2022-08-26T16:54:07.056Z,24.60
2022-08-26T16:56:37.640Z,24.40
2022-08-26T16:59:07.744Z,24.50
2022-08-26T17:01:35.077Z,24.50
2022-08-26T17:04:02.190Z,24.40
2022-08-26T17:06:29.820Z,24.40
2022-08-26T17:08:56.833Z,24.30
2022-08-26T17:11:23.926Z,24.20
2022-08-26T17:13:53.843Z,24.10
2022-08-26T17:16:26.410Z,24.10
2022-08-26T17:18:55.827Z,24.00
2022-08-26T17:21:28.349Z,23.90
2022-08-26T17:23:56.400Z,23.90
2022-08-26T17:26:23.454Z,23.80
2022-08-26T17:28:50.472Z,23.80
2022-08-26T17:31:17.825Z,23.80
2022-08-26T17:33:48.854Z,23.80
2022-08-26T17:36:20.289Z,23.80
2022-08-26T17:38:52.469Z,23.80
2022-08-26T17:41:21.564Z,23.90
2022-08-26T17:43:48.719Z,23.80
2022-08-26T17:46:15.827Z,23.80
2022-08-26T17:48:42.853Z,23.90
2022-08-26T17:51:15.045Z,23.90
2022-08-26T17:53:42.722Z,23.90
2022-08-26T17:56:14.804Z,23.90
2022-08-26T17:58:47.988Z,23.80
2022-08-26T18:01:19.547Z,23.60
2022-08-26T18:03:46.723Z,23.60
2022-08-26T18:06:14.589Z,23.60
2022-08-26T18:08:42.275Z,23.70
2022-08-26T18:11:16.316Z,23.70
2022-08-26T18:13:47.252Z,23.80
2022-08-26T18:16:15.462Z,23.80
2022-08-26T18:18:43.000Z,23.80
2022-08-26T18:21:19.174Z,23.70
2022-08-26T18:23:46.954Z,23.70
2022-08-26T18:26:25.289Z,23.60
2022-08-26T18:28:53.224Z,23.60
2022-08-26T18:31:20.661Z,23.60
2022-08-26T18:33:47.554Z,23.60
2022-08-26T18:36:37.895Z,23.60
2022-08-26T18:39:06.797Z,23.50
2022-08-26T18:41:39.391Z,23.40
2022-08-26T18:44:08.535Z,23.30
2022-08-26T18:46:37.815Z,23.20
2022-08-26T18:49:06.697Z,23.20
2022-08-26T18:51:34.466Z,23.10
2022-08-26T18:54:03.920Z,23.20
2022-08-26T18:56:31.217Z,23.10
2022-08-26T18:58:59.728Z,23.10
2022-08-26T19:01:28.290Z,23.00
2022-08-26T19:03:57.029Z,23.00
2022-08-26T19:06:26.641Z,22.90
2022-08-26T19:08:53.940Z,22.80
2022-08-26T19:11:31.371Z,22.80
2022-08-26T19:13:58.988Z,22.80
2022-08-26T19:16:27.148Z,22.80
2022-08-26T19:18:56.644Z,22.80
2022-08-26T19:21:24.304Z,22.90
2022-08-26T19:23:51.989Z,22.90
2022-08-26T19:26:19.233Z,22.80
2022-08-26T19:28:46.059Z,22.80
2022-08-26T19:31:12.968Z,22.80
2022-08-26T19:33:42.811Z,22.60
2022-08-26T19:36:15.220Z,22.60
2022-08-26T19:38:42.844Z,22.60
2022-08-26T19:41:14.957Z,22.60
2022-08-26T19:43:42.674Z,22.60
2022-08-26T19:46:12.690Z,22.60
2022-08-26T19:48:43.892Z,22.40
2022-08-26T19:51:15.971Z,22.40
2022-08-26T19:53:44.594Z,22.30
2022-08-26T19:56:13.158Z,22.40
2022-08-26T19:58:41.302Z,22.30
2022-08-26T20:01:09.160Z,22.40
2022-08-26T20:03:37.746Z,22.30
2022-08-26T20:06:07.040Z,22.20
2022-08-26T20:08:35.342Z,22.10
2022-08-26T20:11:10.087Z,22.10
2022-08-26T20:13:37.141Z,22.10
2022-08-26T20:16:04.910Z,22.00
2022-08-26T20:18:50.527Z,22.10
2022-08-26T20:21:26.237Z,22.20
2022-08-26T20:24:00.588Z,22.20
2022-08-26T20:26:29.869Z,22.10
2022-08-26T20:28:57.478Z,22.10
2022-08-26T20:31:25.734Z,22.10
2022-08-26T20:33:53.518Z,22.00
2022-08-26T20:36:22.883Z,22.00
2022-08-26T20:38:50.604Z,22.00
2022-08-26T20:41:18.463Z,22.00
2022-08-26T20:43:46.437Z,21.90
2022-08-26T20:46:18.022Z,22.00
2022-08-26T20:48:45.954Z,22.00
2022-08-26T20:51:12.818Z,22.10
2022-08-26T20:53:40.153Z,22.10
2022-08-26T20:56:08.663Z,22.10
2022-08-26T20:58:37.635Z,22.00
2022-08-26T21:01:07.973Z,21.80
2022-08-26T21:03:36.572Z,21.70
2022-08-26T21:06:03.875Z,21.70
2022-08-26T21:08:33.068Z,21.70
2022-08-26T21:11:01.974Z,21.70
2022-08-26T21:13:42.891Z,21.70
2022-08-26T21:16:19.469Z,21.70
2022-08-26T21:18:47.123Z,21.80
2022-08-26T21:21:14.122Z,21.70
2022-08-26T21:23:41.268Z,21.60
2022-08-26T21:26:11.713Z,21.60
2022-08-26T21:28:41.025Z,21.60
2022-08-26T21:31:14.586Z,21.60
2022-08-26T21:33:42.317Z,21.70
2022-08-26T21:36:10.436Z,21.60
2022-08-26T21:38:38.243Z,21.50
2022-08-26T21:41:19.349Z,21.50
2022-08-26T21:43:48.342Z,21.50
2022-08-26T21:46:19.691Z,21.50
2022-08-26T21:48:50.877Z,21.40
2022-08-26T21:51:20.981Z,21.30
2022-08-26T21:53:48.315Z,21.30
2022-08-26T21:56:16.765Z,21.30
2022-08-26T21:58:44.569Z,21.30
2022-08-26T22:01:19.124Z,21.20
2022-08-26T22:03:47.507Z,21.30
2022-08-26T22:06:20.851Z,21.30
2022-08-26T22:08:47.895Z,21.40
2022-08-26T22:11:15.795Z,21.40
2022-08-26T22:13:43.775Z,21.40
2022-08-26T22:16:11.339Z,21.50
2022-08-26T22:18:39.229Z,21.50
2022-08-26T22:21:09.260Z,21.50
2022-08-26T22:23:38.062Z,21.40
2022-08-26T22:26:09.106Z,21.40
2022-08-26T22:28:36.663Z,21.30
2022-08-26T22:31:03.443Z,21.20
2022-08-26T22:33:30.419Z,21.10
2022-08-26T22:35:57.553Z,21.10
2022-08-26T22:38:24.950Z,21.00
2022-08-26T22:41:06.585Z,21.00
2022-08-26T22:43:38.230Z,21.00
2022-08-26T22:46:09.444Z,20.90
2022-08-26T22:48:38.235Z,21.00
2022-08-26T22:51:05.447Z,21.00
2022-08-26T22:53:32.722Z,21.00
2022-08-26T22:56:03.478Z,21.00
2022-08-26T22:58:31.339Z,21.10
2022-08-26T23:00:59.295Z,21.10
2022-08-26T23:03:26.869Z,21.10
2022-08-26T23:05:55.330Z,21.10
2022-08-26T23:08:23.215Z,21.10
2022-08-26T23:10:50.674Z,21.00
2022-08-26T23:13:18.331Z,21.00
2022-08-26T23:15:46.494Z,21.00
2022-08-26T23:18:15.202Z,20.90
2022-08-26T23:20:42.269Z,20.90
2022-08-26T23:23:09.499Z,20.80
2022-08-26T23:25:36.505Z,20.80
2022-08-26T23:28:04.023Z,20.80
2022-08-26T23:30:32.890Z,20.90
2022-08-26T23:33:00.397Z,20.80
2022-08-26T23:35:27.904Z,20.80
2022-08-26T23:37:54.669Z,20.70
2022-08-26T23:40:32.636Z,20.70
2022-08-26T23:43:03.235Z,20.60
2022-08-26T23:45:31.588Z,20.50
2022-08-26T23:47:59.066Z,20.40
2022-08-26T23:50:48.050Z,20.40
2022-08-26T23:53:21.667Z,20.40
2022-08-26T23:55:50.937Z,20.40
2022-08-26T23:58:19.864Z,20.50
